Time;durP1;ratioP1;P1;durP2;ratioP2;P2;SDS_P1;SDS_P2;PMS_P1;PMS_P2;Temp;Humidity;BMP_temperature;BMP_pressure;BME280_temperature;BME280_humidity;BME280_pressure;Samples;Min_cycle;Max_cycle;Signal;HPM_P1;HPM_P2
2021/10/13 00:04:25;;;;;;;6.97;5.10;;;;;;;;;;4975804;28;20443;-70
2021/10/13 00:06:51;;;;;;;5.70;5.20;;;;;;;;;;4975663;28;20897;-71
2021/10/13 00:09:17;;;;;;;8.33;5.80;;;;;;;;;;4975832;28;20477;-70
2021/10/13 00:11:43;;;;;;;6.10;5.40;;;;;;;;;;4975272;28;20477;-71
2021/10/13 00:14:09;;;;;;;6.50;4.93;;;;;;;;;;4975472;28;20496;-70
2021/10/13 00:19:39;;;;;;;8.10;5.97;;;;;;;;;;4975337;28;20465;-73
2021/10/13 00:22:05;;;;;;;7.47;5.03;;;;;;;;;;4975369;28;20403;-71
2021/10/13 00:24:31;;;;;;;6.17;5.57;;;;;;;;;;4975190;28;20422;-71
2021/10/13 00:26:57;;;;;;;6.20;5.40;;;;;;;;;;4974983;28;20447;-70
2021/10/13 00:29:23;;;;;;;6.90;5.27;;;;;;;;;;4975225;28;20424;-69
2021/10/13 00:34:52;;;;;;;5.33;4.80;;;;;;;;;;4974885;28;20537;-70
2021/10/13 00:37:18;;;;;;;5.40;4.90;;;;;;;;;;4974472;28;20536;-73
2021/10/13 00:39:44;;;;;;;6.07;5.00;;;;;;;;;;4974870;28;20424;-72
2021/10/13 00:42:10;;;;;;;7.70;5.70;;;;;;;;;;4973528;28;20434;-70
2021/10/13 00:44:36;;;;;;;6.37;5.17;;;;;;;;;;4974818;28;20451;-71
2021/10/13 00:50:10;;;;;;;6.40;5.50;;;;;;;;;;4974769;28;20541;-71
2021/10/13 00:52:40;;;;;;;6.90;5.73;;;;;;;;;;4974949;28;20697;-72
2021/10/13 00:55:08;;;;;;;6.30;5.00;;;;;;;;;;4974629;28;20596;-71
2021/10/13 00:57:34;;;;;;;6.77;5.60;;;;;;;;;;4974503;28;20414;-73
2021/10/13 00:59:59;;;;;;;5.43;4.60;;;;;;;;;;4974669;28;20427;-71
2021/10/13 01:02:29;;;;;;;8.17;5.47;;;;;;;;;;4974632;28;20494;-71
2021/10/13 01:05:01;;;;;;;5.77;5.23;;;;;;;;;;4974662;28;20498;-71
2021/10/13 01:07:42;;;;;;;5.80;5.30;;;;;;;;;;4974499;28;20514;-70
2021/10/13 01:10:19;;;;;;;5.37;4.97;;;;;;;;;;4974337;28;20422;-70
2021/10/13 01:13:08;;;;;;;6.37;5.77;;;;;;;;;;4974344;28;20420;-70
2021/10/13 01:15:37;;;;;;;6.93;5.53;;;;;;;;;;4974153;28;20453;-71
2021/10/13 01:18:22;;;;;;;6.03;5.47;;;;;;;;;;4974442;28;20771;-70
2021/10/13 01:21:13;;;;;;;7.10;6.13;;;;;;;;;;4974395;28;20456;-70
2021/10/13 01:23:58;;;;;;;6.70;4.93;;;;;;;;;;4974355;28;20423;-71
2021/10/13 01:26:42;;;;;;;6.40;5.80;;;;;;;;;;4973990;28;20510;-70
2021/10/13 01:29:11;;;;;;;5.47;4.73;;;;;;;;;;4974270;28;20422;-70
2021/10/13 01:31:41;;;;;;;5.33;4.67;;;;;;;;;;4974000;28;20470;-70
2021/10/13 01:34:08;;;;;;;5.80;5.23;;;;;;;;;;4974230;28;20777;-70
2021/10/13 01:36:43;;;;;;;5.47;4.60;;;;;;;;;;4975949;28;20428;-71
2021/10/13 01:39:09;;;;;;;5.97;5.40;;;;;;;;;;4980215;28;20410;-70
2021/10/13 01:41:36;;;;;;;7.23;5.43;;;;;;;;;;4980645;28;20503;-71
2021/10/13 01:44:04;;;;;;;6.50;5.90;;;;;;;;;;4980372;28;20412;-70
2021/10/13 01:46:30;;;;;;;5.90;5.40;;;;;;;;;;4980449;28;20419;-70
2021/10/13 01:48:57;;;;;;;8.97;5.33;;;;;;;;;;4980667;28;20810;-69
2021/10/13 01:51:25;;;;;;;7.77;5.00;;;;;;;;;;4980828;28;20501;-71
2021/10/13 01:53:51;;;;;;;5.47;4.87;;;;;;;;;;4980536;28;20446;-69
2021/10/13 01:56:18;;;;;;;7.80;5.17;;;;;;;;;;4980152;28;20482;-70
2021/10/13 01:58:45;;;;;;;7.10;4.87;;;;;;;;;;4980460;28;20766;-71
2021/10/13 02:01:11;;;;;;;6.53;5.87;;;;;;;;;;4980433;28;20477;-71
2021/10/13 02:03:39;;;;;;;7.87;5.27;;;;;;;;;;4980410;28;20471;-70
2021/10/13 02:06:06;;;;;;;6.83;5.67;;;;;;;;;;4980626;28;20426;-70
2021/10/13 02:08:32;;;;;;;5.37;4.43;;;;;;;;;;4980601;28;20433;-71
2021/10/13 02:10:59;;;;;;;7.27;5.20;;;;;;;;;;4980302;28;20467;-71
2021/10/13 02:13:31;;;;;;;7.30;5.50;;;;;;;;;;4980500;28;20418;-72
2021/10/13 02:15:58;;;;;;;4.60;4.20;;;;;;;;;;4980353;28;20449;-70
2021/10/13 02:18:26;;;;;;;6.53;4.87;;;;;;;;;;4980363;28;20485;-70
2021/10/13 02:20:55;;;;;;;5.93;5.40;;;;;;;;;;4980228;28;20407;-70
2021/10/13 02:23:22;;;;;;;6.20;4.33;;;;;;;;;;4980190;28;20423;-71
2021/10/13 02:25:50;;;;;;;5.93;5.30;;;;;;;;;;4980491;28;20915;-70
2021/10/13 02:28:30;;;;;;;5.83;5.00;;;;;;;;;;4980284;28;20461;-70
2021/10/13 02:30:56;;;;;;;7.30;4.80;;;;;;;;;;4979994;28;20818;-70
2021/10/13 02:33:24;;;;;;;5.00;4.50;;;;;;;;;;4980229;28;20768;-71
2021/10/13 02:35:51;;;;;;;6.27;5.30;;;;;;;;;;4980288;28;20435;-71
2021/10/13 02:38:17;;;;;;;6.57;4.83;;;;;;;;;;4980109;28;20511;-71
2021/10/13 02:40:43;;;;;;;5.00;4.60;;;;;;;;;;4978745;28;20485;-71
2021/10/13 02:43:10;;;;;;;5.40;4.80;;;;;;;;;;4980172;28;20428;-70
2021/10/13 02:45:39;;;;;;;10.00;5.53;;;;;;;;;;4979902;28;20427;-70
2021/10/13 02:51:11;;;;;;;6.17;5.57;;;;;;;;;;4976694;28;20470;-71
2021/10/13 02:53:41;;;;;;;6.90;6.30;;;;;;;;;;4976943;28;20431;-71
2021/10/13 02:56:12;;;;;;;9.83;6.13;;;;;;;;;;4976747;28;20986;-71
2021/10/13 02:58:38;;;;;;;7.70;5.17;;;;;;;;;;4976638;28;20442;-70
2021/10/13 03:01:05;;;;;;;8.00;5.23;;;;;;;;;;4976732;28;20458;-71
2021/10/13 03:03:33;;;;;;;5.87;5.20;;;;;;;;;;4976685;28;20427;-70
2021/10/13 03:06:01;;;;;;;5.97;5.40;;;;;;;;;;4976675;28;20422;-71
2021/10/13 03:08:27;;;;;;;6.60;5.00;;;;;;;;;;4976914;28;20451;-71
2021/10/13 03:10:57;;;;;;;5.67;5.10;;;;;;;;;;4976600;28;20457;-70
2021/10/13 03:13:28;;;;;;;7.13;5.30;;;;;;;;;;4976416;28;20421;-70
2021/10/13 03:15:54;;;;;;;6.60;5.00;;;;;;;;;;4976506;28;20740;-71
2021/10/13 03:21:27;;;;;;;5.80;5.07;;;;;;;;;;4976280;28;20418;-70
2021/10/13 03:23:53;;;;;;;8.77;5.50;;;;;;;;;;4976396;28;20412;-70
2021/10/13 03:26:19;;;;;;;6.23;5.37;;;;;;;;;;4976195;28;20424;-70
2021/10/13 03:28:45;;;;;;;7.47;5.40;;;;;;;;;;4976140;28;20403;-71
2021/10/13 03:31:11;;;;;;;6.63;5.93;;;;;;;;;;4976218;28;20467;-70
2021/10/13 03:36:42;;;;;;;6.93;5.50;;;;;;;;;;4976131;28;20514;-70
2021/10/13 03:39:08;;;;;;;7.73;5.90;;;;;;;;;;4976178;28;20898;-71
2021/10/13 03:41:34;;;;;;;12.33;5.70;;;;;;;;;;4976112;28;20428;-72
2021/10/13 03:44:01;;;;;;;6.07;5.47;;;;;;;;;;4976048;28;20420;-71
2021/10/13 03:46:26;;;;;;;8.53;6.30;;;;;;;;;;4974484;28;20452;-71
2021/10/13 03:48:53;;;;;;;6.50;5.60;;;;;;;;;;4975889;28;20904;-71
2021/10/13 03:51:19;;;;;;;7.50;6.20;;;;;;;;;;4975648;28;20839;-72
2021/10/13 03:53:45;;;;;;;6.00;5.40;;;;;;;;;;4975808;28;20420;-71
2021/10/13 03:56:12;;;;;;;6.23;5.63;;;;;;;;;;4975470;28;20479;-72
2021/10/13 03:58:38;;;;;;;5.60;4.73;;;;;;;;;;4973206;28;20412;-71
2021/10/13 04:01:04;;;;;;;5.90;5.30;;;;;;;;;;4975440;28;20412;-72
2021/10/13 04:06:34;;;;;;;13.37;7.00;;;;;;;;;;4975652;28;20414;-72
2021/10/13 04:09:00;;;;;;;6.77;6.03;;;;;;;;;;4975487;28;20780;-72
2021/10/13 04:11:26;;;;;;;8.93;6.80;;;;;;;;;;4975349;28;20518;-71
2021/10/13 04:13:52;;;;;;;7.43;6.27;;;;;;;;;;4975485;28;20435;-71
2021/10/13 04:16:18;;;;;;;7.27;6.17;;;;;;;;;;4975412;28;20500;-71
2021/10/13 04:21:47;;;;;;;5.97;4.80;;;;;;;;;;4975268;28;20415;-70
2021/10/13 04:24:13;;;;;;;6.60;6.00;;;;;;;;;;4975266;28;20418;-71
2021/10/13 04:26:39;;;;;;;7.03;5.87;;;;;;;;;;4975439;28;20412;-71
2021/10/13 04:29:05;;;;;;;6.77;5.97;;;;;;;;;;4975311;28;20450;-72
2021/10/13 04:31:31;;;;;;;6.53;5.43;;;;;;;;;;4975093;28;20466;-70
2021/10/13 04:37:00;;;;;;;8.53;5.90;;;;;;;;;;4974918;28;20541;-70
2021/10/13 04:39:26;;;;;;;8.27;5.87;;;;;;;;;;4975216;28;20901;-71
2021/10/13 04:41:52;;;;;;;10.40;7.00;;;;;;;;;;4974737;28;20465;-72
2021/10/13 04:44:18;;;;;;;8.13;6.20;;;;;;;;;;4975236;28;20416;-72
2021/10/13 04:46:44;;;;;;;11.60;7.40;;;;;;;;;;4974809;28;20419;-70
2021/10/13 04:52:14;;;;;;;7.87;6.67;;;;;;;;;;4974704;28;20469;-71
2021/10/13 04:54:40;;;;;;;9.17;6.70;;;;;;;;;;4974658;28;20471;-70
2021/10/13 04:57:06;;;;;;;7.63;6.13;;;;;;;;;;4974648;28;20434;-70
2021/10/13 04:59:32;;;;;;;7.53;5.97;;;;;;;;;;4974748;28;20428;-71
2021/10/13 05:01:58;;;;;;;7.17;5.80;;;;;;;;;;4974486;28;20478;-71
2021/10/13 05:07:27;;;;;;;8.13;6.00;;;;;;;;;;4974457;28;20461;-71
2021/10/13 05:09:53;;;;;;;7.03;5.77;;;;;;;;;;4974823;28;20425;-72
2021/10/13 05:12:19;;;;;;;8.63;5.57;;;;;;;;;;4973547;28;20474;-71
2021/10/13 05:14:45;;;;;;;11.07;7.00;;;;;;;;;;4974674;28;20585;-71
2021/10/13 05:17:11;;;;;;;6.83;5.90;;;;;;;;;;4974721;28;20514;-72
2021/10/13 05:22:41;;;;;;;11.23;6.67;;;;;;;;;;4974441;28;20942;-72
2021/10/13 05:25:07;;;;;;;7.03;5.80;;;;;;;;;;4974504;28;20412;-71
2021/10/13 05:27:33;;;;;;;9.40;6.93;;;;;;;;;;4974150;28;20425;-71
2021/10/13 05:29:59;;;;;;;11.13;7.93;;;;;;;;;;4974357;28;20425;-71
2021/10/13 05:32:25;;;;;;;12.93;7.67;;;;;;;;;;4973665;28;20533;-73
2021/10/13 05:37:54;;;;;;;11.03;7.00;;;;;;;;;;4973774;28;20405;-71
2021/10/13 05:40:20;;;;;;;9.23;7.50;;;;;;;;;;4974030;28;20802;-70
2021/10/13 05:42:46;;;;;;;10.43;7.70;;;;;;;;;;4973684;28;20422;-70
2021/10/13 05:45:12;;;;;;;10.00;7.47;;;;;;;;;;4973966;28;20469;-71
2021/10/13 05:47:38;;;;;;;14.10;7.37;;;;;;;;;;4973627;28;20430;-70
2021/10/13 05:53:07;;;;;;;11.57;8.10;;;;;;;;;;4973655;28;20414;-70
2021/10/13 05:55:33;;;;;;;11.73;8.10;;;;;;;;;;4972104;28;20981;-71
2021/10/13 05:58:04;;;;;;;13.43;8.60;;;;;;;;;;4973658;28;20410;-71
2021/10/13 06:00:30;;;;;;;11.57;7.63;;;;;;;;;;4973623;28;20414;-71
2021/10/13 06:02:58;;;;;;;11.67;7.23;;;;;;;;;;4973784;28;20410;-71
2021/10/13 06:05:24;;;;;;;12.33;9.20;;;;;;;;;;4973810;28;20409;-70
2021/10/13 06:07:50;;;;;;;11.40;7.73;;;;;;;;;;4973650;28;20401;-70
2021/10/13 06:10:16;;;;;;;10.40;7.27;;;;;;;;;;4973553;28;20405;-69
2021/10/13 06:12:42;;;;;;;8.40;6.90;;;;;;;;;;4973442;28;20423;-69
2021/10/13 06:15:08;;;;;;;13.30;8.57;;;;;;;;;;4973586;28;20471;-68
2021/10/13 06:17:34;;;;;;;9.47;6.93;;;;;;;;;;4973740;28;20434;-68
2021/10/13 06:23:04;;;;;;;12.33;8.40;;;;;;;;;;4974832;28;20442;-69
2021/10/13 06:25:31;;;;;;;8.93;7.80;;;;;;;;;;4976103;28;20940;-71
2021/10/13 06:27:57;;;;;;;9.40;6.63;;;;;;;;;;4977113;28;20436;-71
2021/10/13 06:30:23;;;;;;;10.10;7.07;;;;;;;;;;4975790;28;20922;-70
2021/10/13 06:32:49;;;;;;;10.30;6.73;;;;;;;;;;4977430;28;20434;-70
2021/10/13 06:38:18;;;;;;;6.93;6.00;;;;;;;;;;4977291;28;20406;-69
2021/10/13 06:40:44;;;;;;;9.87;6.83;;;;;;;;;;4977279;28;20419;-69
2021/10/13 06:43:11;;;;;;;8.67;6.90;;;;;;;;;;4977129;28;20423;-70
2021/10/13 06:45:38;;;;;;;8.40;6.97;;;;;;;;;;4977246;28;20412;-70
2021/10/13 06:48:05;;;;;;;12.80;7.03;;;;;;;;;;4977268;28;20788;-70
2021/10/13 06:53:34;;;;;;;7.90;6.57;;;;;;;;;;4976918;28;20464;-69
2021/10/13 06:56:00;;;;;;;9.07;7.27;;;;;;;;;;4976789;28;20462;-69
2021/10/13 06:58:26;;;;;;;7.93;6.70;;;;;;;;;;4976909;28;20480;-70
2021/10/13 07:00:52;;;;;;;8.87;7.00;;;;;;;;;;4976327;28;20894;-69
2021/10/13 07:03:21;;;;;;;7.40;6.27;;;;;;;;;;4976691;28;20408;-70
2021/10/13 07:08:57;;;;;;;8.43;7.33;;;;;;;;;;4976562;28;20469;-68
2021/10/13 07:11:33;;;;;;;10.47;7.60;;;;;;;;;;4976204;28;20467;-69
2021/10/13 07:14:06;;;;;;;10.60;6.50;;;;;;;;;;4976486;28;20461;-70
2021/10/13 07:16:34;;;;;;;9.40;7.70;;;;;;;;;;4976712;28;20884;-69
2021/10/13 07:19:09;;;;;;;9.63;8.20;;;;;;;;;;4976365;28;20503;-69
2021/10/13 07:21:35;;;;;;;10.20;6.87;;;;;;;;;;4975186;28;20444;-68
2021/10/13 07:24:12;;;;;;;8.60;6.30;;;;;;;;;;4976343;28;20435;-70
2021/10/13 07:26:39;;;;;;;12.73;7.20;;;;;;;;;;4975390;28;20463;-69
2021/10/13 07:29:05;;;;;;;8.70;5.80;;;;;;;;;;4976430;28;20415;-70
2021/10/13 07:31:31;;;;;;;9.50;7.47;;;;;;;;;;4976411;28;20583;-70
2021/10/13 07:33:58;;;;;;;7.80;5.50;;;;;;;;;;4975701;28;20911;-70
2021/10/13 07:36:24;;;;;;;7.40;5.77;;;;;;;;;;4976034;28;20424;-67
2021/10/13 07:38:50;;;;;;;5.60;5.00;;;;;;;;;;4976402;28;20463;-70
2021/10/13 07:41:16;;;;;;;6.73;5.40;;;;;;;;;;4975635;28;20422;-69
2021/10/13 07:43:42;;;;;;;8.00;5.13;;;;;;;;;;4975931;28;20423;-71
2021/10/13 07:46:09;;;;;;;9.33;5.60;;;;;;;;;;4975843;28;20413;-71
2021/10/13 07:48:35;;;;;;;5.60;4.20;;;;;;;;;;4975871;28;20411;-72
2021/10/13 07:54:04;;;;;;;9.20;5.63;;;;;;;;;;4975818;28;20501;-70
2021/10/13 07:56:31;;;;;;;9.03;5.80;;;;;;;;;;4975524;28;20914;-72
2021/10/13 07:58:57;;;;;;;8.10;5.83;;;;;;;;;;4975584;28;20437;-69
2021/10/13 08:01:23;;;;;;;9.47;5.43;;;;;;;;;;4975626;28;20410;-72
2021/10/13 08:03:49;;;;;;;7.83;5.37;;;;;;;;;;4975503;28;20807;-71
2021/10/13 08:09:18;;;;;;;9.50;5.67;;;;;;;;;;4975337;28;20475;-71
2021/10/13 08:11:44;;;;;;;9.37;5.30;;;;;;;;;;4975026;28;20565;-71
2021/10/13 08:14:10;;;;;;;7.87;5.60;;;;;;;;;;4975090;28;20418;-70
2021/10/13 08:16:36;;;;;;;6.60;5.50;;;;;;;;;;4975183;28;20418;-73
2021/10/13 08:19:02;;;;;;;6.33;4.60;;;;;;;;;;4975085;28;20518;-71
2021/10/13 08:21:28;;;;;;;5.00;4.33;;;;;;;;;;4974996;28;20419;-73
2021/10/13 08:23:54;;;;;;;4.27;3.80;;;;;;;;;;4975030;28;20419;-70
2021/10/13 08:26:20;;;;;;;9.03;4.13;;;;;;;;;;4974760;28;20426;-69
2021/10/13 08:28:46;;;;;;;4.40;3.77;;;;;;;;;;4973964;28;20445;-75
2021/10/13 08:31:14;;;;;;;4.80;4.30;;;;;;;;;;4973541;28;20486;-71
2021/10/13 08:33:40;;;;;;;4.60;3.40;;;;;;;;;;4973767;28;20427;-71
2021/10/13 08:39:10;;;;;;;4.53;3.40;;;;;;;;;;4974857;28;20506;-71
2021/10/13 08:41:35;;;;;;;3.90;3.47;;;;;;;;;;4973590;28;20426;-70
2021/10/13 08:44:02;;;;;;;6.00;3.57;;;;;;;;;;4975038;28;20411;-71
2021/10/13 08:46:29;;;;;;;4.53;3.27;;;;;;;;;;4974340;28;20426;-70
2021/10/13 08:48:55;;;;;;;4.80;3.37;;;;;;;;;;4975280;28;20775;-70
2021/10/13 08:54:24;;;;;;;2.53;2.33;;;;;;;;;;4974677;28;20844;-70
2021/10/13 08:56:50;;;;;;;3.77;2.67;;;;;;;;;;4974735;28;20426;-71
2021/10/13 08:59:35;;;;;;;8.13;3.27;;;;;;;;;;4975241;28;20419;-71
2021/10/13 09:02:01;;;;;;;5.47;3.63;;;;;;;;;;4974752;28;20406;-72
2021/10/13 09:04:27;;;;;;;3.00;2.20;;;;;;;;;;4974781;28;20509;-71
2021/10/13 09:07:01;;;;;;;3.90;2.80;;;;;;;;;;4973322;28;20785;-69
2021/10/13 09:09:27;;;;;;;2.90;2.40;;;;;;;;;;4974952;28;20815;-71
2021/10/13 09:11:53;;;;;;;2.73;2.53;;;;;;;;;;4974053;28;20466;-70
2021/10/13 09:14:19;;;;;;;6.13;2.50;;;;;;;;;;4974823;28;20415;-71
2021/10/13 09:17:06;;;;;;;6.93;3.60;;;;;;;;;;4974541;28;20418;-71
2021/10/13 09:19:37;;;;;;;4.80;3.20;;;;;;;;;;4974460;28;20415;-71
2021/10/13 09:22:04;;;;;;;3.50;2.70;;;;;;;;;;4974611;28;20774;-71
2021/10/13 09:24:31;;;;;;;4.53;3.57;;;;;;;;;;4973413;28;20427;-71
2021/10/13 09:26:59;;;;;;;7.87;4.10;;;;;;;;;;4974186;28;20419;-71
2021/10/13 09:29:25;;;;;;;5.93;4.20;;;;;;;;;;4974300;28;20418;-70
2021/10/13 09:31:59;;;;;;;5.80;4.40;;;;;;;;;;4974559;28;20551;-71
2021/10/13 09:34:25;;;;;;;4.47;3.70;;;;;;;;;;4974621;28;20490;-71
2021/10/13 09:39:56;;;;;;;5.87;4.30;;;;;;;;;;4974262;28;20458;-71
2021/10/13 09:42:23;;;;;;;8.50;6.30;;;;;;;;;;4974363;28;20411;-71
2021/10/13 09:44:56;;;;;;;5.40;4.90;;;;;;;;;;4973267;28;20485;-70
2021/10/13 09:47:34;;;;;;;6.47;4.50;;;;;;;;;;4973863;28;20410;-71
2021/10/13 09:50:01;;;;;;;6.30;5.33;;;;;;;;;;4974230;28;20415;-71
2021/10/13 09:52:29;;;;;;;5.97;4.90;;;;;;;;;;4974062;28;20469;-71
2021/10/13 09:55:03;;;;;;;8.90;5.00;;;;;;;;;;4971200;28;20462;-71
2021/10/13 09:57:30;;;;;;;7.23;6.17;;;;;;;;;;4973466;28;20434;-71
2021/10/13 10:00:02;;;;;;;8.77;5.97;;;;;;;;;;4976642;28;20415;-69
2021/10/13 10:02:33;;;;;;;9.67;6.47;;;;;;;;;;4977155;28;20776;-70
2021/10/13 10:05:01;;;;;;;6.40;5.80;;;;;;;;;;4976776;28;20528;-72
2021/10/13 10:07:27;;;;;;;8.77;5.37;;;;;;;;;;4973099;28;20445;-70
2021/10/13 10:10:13;;;;;;;6.83;4.60;;;;;;;;;;4976011;28;20410;-71
2021/10/13 10:13:08;;;;;;;6.47;5.37;;;;;;;;;;4976693;28;20429;-70
2021/10/13 10:15:46;;;;;;;7.60;3.87;;;;;;;;;;4976101;28;20443;-71
2021/10/13 10:18:26;;;;;;;5.70;5.20;;;;;;;;;;4976509;28;20424;-71
2021/10/13 10:20:53;;;;;;;8.40;4.50;;;;;;;;;;4975883;28;20422;-72
2021/10/13 10:23:29;;;;;;;9.33;4.00;;;;;;;;;;4975803;28;20806;-72
2021/10/13 10:25:56;;;;;;;6.67;4.03;;;;;;;;;;4976997;28;20473;-71
2021/10/13 10:28:41;;;;;;;5.17;3.20;;;;;;;;;;4976871;28;20498;-71
2021/10/13 10:31:25;;;;;;;4.67;4.13;;;;;;;;;;4976833;28;20933;-71
2021/10/13 10:33:51;;;;;;;5.17;3.87;;;;;;;;;;4977024;28;20910;-70
2021/10/13 10:36:17;;;;;;;5.40;4.47;;;;;;;;;;4977049;28;20418;-73
2021/10/13 10:38:47;;;;;;;5.33;3.50;;;;;;;;;;4976848;28;20410;-71
2021/10/13 10:41:13;;;;;;;3.70;3.17;;;;;;;;;;4976465;28;20428;-71
2021/10/13 10:43:39;;;;;;;3.43;2.67;;;;;;;;;;4976751;28;20509;-71
2021/10/13 10:46:05;;;;;;;5.10;2.57;;;;;;;;;;4976763;28;20429;-72
2021/10/13 10:48:45;;;;;;;3.40;2.47;;;;;;;;;;4977032;28;20878;-71
2021/10/13 10:51:11;;;;;;;2.73;2.20;;;;;;;;;;4976501;28;20540;-71
2021/10/13 10:53:44;;;;;;;1.67;1.33;;;;;;;;;;4976492;28;20410;-71
2021/10/13 10:56:10;;;;;;;1.83;1.50;;;;;;;;;;4976490;28;20484;-70
2021/10/13 10:58:36;;;;;;;2.70;2.50;;;;;;;;;;4976530;28;20418;-71
2021/10/13 11:01:07;;;;;;;3.47;1.83;;;;;;;;;;4976406;28;20418;-70
2021/10/13 11:03:36;;;;;;;3.30;2.23;;;;;;;;;;4976859;28;20529;-70
2021/10/13 11:06:09;;;;;;;4.73;2.70;;;;;;;;;;4976343;28;20406;-69
2021/10/13 11:08:35;;;;;;;3.63;2.60;;;;;;;;;;4976232;28;20438;-71
2021/10/13 11:11:14;;;;;;;3.33;2.60;;;;;;;;;;4975459;28;21026;-71
2021/10/13 11:13:40;;;;;;;3.07;2.10;;;;;;;;;;4976472;28;20414;-71
2021/10/13 11:16:09;;;;;;;1.10;1.00;;;;;;;;;;4976277;28;20453;-70
2021/10/13 11:18:35;;;;;;;1.10;0.70;;;;;;;;;;4976253;28;20452;-70
2021/10/13 11:21:11;;;;;;;0.93;0.67;;;;;;;;;;4976251;28;20796;-70
2021/10/13 11:23:38;;;;;;;2.17;1.60;;;;;;;;;;4976376;28;20410;-70
2021/10/13 11:26:04;;;;;;;3.03;1.63;;;;;;;;;;4976166;28;20410;-70
2021/10/13 11:28:36;;;;;;;3.90;1.70;;;;;;;;;;4976214;28;20778;-70
2021/10/13 11:31:06;;;;;;;4.63;2.10;;;;;;;;;;4976049;28;20461;-72
2021/10/13 11:33:32;;;;;;;4.80;2.50;;;;;;;;;;4974645;28;20454;-72
2021/10/13 11:42:12;;;;;;;2.50;2.30;;;;;;;;;;4975686;28;20484;-71
2021/10/13 11:44:45;;;;;;;4.30;3.03;;;;;;;;;;4975685;28;20434;-70
2021/10/13 11:47:11;;;;;;;3.10;2.30;;;;;;;;;;4974924;28;20423;-73
2021/10/13 11:49:57;;;;;;;2.57;2.20;;;;;;;;;;4971684;28;20427;-70
2021/10/13 11:52:23;;;;;;;3.20;2.40;;;;;;;;;;4973678;28;20477;-70
2021/10/13 11:54:56;;;;;;;5.70;2.40;;;;;;;;;;4972229;28;20798;-71
2021/10/13 11:57:24;;;;;;;3.30;2.20;;;;;;;;;;4973674;28;20430;-72
2021/10/13 12:00:07;;;;;;;5.37;2.87;;;;;;;;;;4973831;28;20473;-72
2021/10/13 12:02:33;;;;;;;5.80;2.20;;;;;;;;;;4973363;28;20418;-72
2021/10/13 12:05:02;;;;;;;4.13;1.60;;;;;;;;;;4974184;28;20411;-69
2021/10/13 12:07:28;;;;;;;3.63;1.63;;;;;;;;;;4974343;28;20426;-69
2021/10/13 12:09:59;;;;;;;0.97;0.90;;;;;;;;;;4973914;28;20524;-68
2021/10/13 12:12:25;;;;;;;1.27;0.70;;;;;;;;;;4972950;28;20477;-69
2021/10/13 12:14:51;;;;;;;2.17;1.20;;;;;;;;;;4973265;28;20476;-69
2021/10/13 12:17:24;;;;;;;2.90;1.00;;;;;;;;;;4973376;28;20857;-68
2021/10/13 12:19:50;;;;;;;1.57;1.00;;;;;;;;;;4973149;28;20437;-69
2021/10/13 12:22:16;;;;;;;0.93;0.90;;;;;;;;;;4972676;28;20513;-70
2021/10/13 12:24:42;;;;;;;2.37;1.20;;;;;;;;;;4973653;28;20414;-69
2021/10/13 12:27:10;;;;;;;0.97;0.83;;;;;;;;;;4973693;28;20433;-69
2021/10/13 12:29:43;;;;;;;1.67;1.00;;;;;;;;;;4973662;28;20873;-67
2021/10/13 12:32:16;;;;;;;1.17;0.80;;;;;;;;;;4973905;28;20556;-69
2021/10/13 12:34:42;;;;;;;1.63;1.00;;;;;;;;;;4973633;28;20501;-70
2021/10/13 12:37:08;;;;;;;4.87;1.43;;;;;;;;;;4973941;28;20422;-72
2021/10/13 12:39:35;;;;;;;1.10;0.80;;;;;;;;;;4973809;28;20826;-69
2021/10/13 12:42:02;;;;;;;4.83;0.80;;;;;;;;;;4973694;28;20419;-72
2021/10/13 12:44:29;;;;;;;1.33;0.80;;;;;;;;;;4973824;28;20475;-70
2021/10/13 12:46:59;;;;;;;0.63;0.60;;;;;;;;;;4974154;28;20871;-70
2021/10/13 12:49:26;;;;;;;0.93;0.73;;;;;;;;;;4973804;28;20407;-69
2021/10/13 12:51:52;;;;;;;1.37;0.80;;;;;;;;;;4973779;28;20492;-70
2021/10/13 12:54:18;;;;;;;2.93;0.90;;;;;;;;;;4972215;28;20426;-69
2021/10/13 12:56:44;;;;;;;1.23;0.80;;;;;;;;;;4972724;28;21016;-70
2021/10/13 12:59:10;;;;;;;2.70;0.70;;;;;;;;;;4973336;28;20419;-69
2021/10/13 13:01:36;;;;;;;1.50;1.10;;;;;;;;;;4973426;28;20478;-69
2021/10/13 13:04:02;;;;;;;1.17;0.63;;;;;;;;;;4970480;28;20418;-69
2021/10/13 13:06:28;;;;;;;1.03;0.93;;;;;;;;;;4973279;28;20421;-70
2021/10/13 13:11:58;;;;;;;0.97;0.83;;;;;;;;;;4973123;28;20541;-70
2021/10/13 13:14:24;;;;;;;1.73;1.20;;;;;;;;;;4973440;28;20589;-70
2021/10/13 13:16:50;;;;;;;1.63;1.30;;;;;;;;;;4973399;28;20510;-70
2021/10/13 13:19:17;;;;;;;0.80;0.80;;;;;;;;;;4973157;28;20981;-71
2021/10/13 13:21:43;;;;;;;1.93;1.10;;;;;;;;;;4973225;28;20426;-70
2021/10/13 13:27:16;;;;;;;1.70;1.03;;;;;;;;;;4973065;28;20917;-70
2021/10/13 13:29:42;;;;;;;2.53;0.97;;;;;;;;;;4971958;28;20558;-70
2021/10/13 13:32:08;;;;;;;1.23;0.80;;;;;;;;;;4969929;28;20832;-69
2021/10/13 13:34:34;;;;;;;2.20;1.17;;;;;;;;;;4973064;28;20415;-71
2021/10/13 13:37:00;;;;;;;1.80;1.40;;;;;;;;;;4973124;28;20423;-71
2021/10/13 13:42:30;;;;;;;0.60;0.57;;;;;;;;;;4971843;28;20417;-69
2021/10/13 13:44:56;;;;;;;5.17;1.33;;;;;;;;;;4972042;28;20513;-69
2021/10/13 13:47:22;;;;;;;1.47;1.00;;;;;;;;;;4971881;28;20971;-70
2021/10/13 13:49:48;;;;;;;0.93;0.93;;;;;;;;;;4971888;28;20423;-70
2021/10/13 13:52:14;;;;;;;1.70;0.80;;;;;;;;;;4971830;28;20466;-71
2021/10/13 13:57:43;;;;;;;0.90;0.90;;;;;;;;;;4971665;28;20414;-71
2021/10/13 14:00:10;;;;;;;3.23;2.20;;;;;;;;;;4971753;28;20953;-71
2021/10/13 14:02:36;;;;;;;1.53;1.23;;;;;;;;;;4972529;28;20427;-72
2021/10/13 14:05:02;;;;;;;1.37;1.03;;;;;;;;;;4972739;28;20862;-71
2021/10/13 14:07:28;;;;;;;1.50;1.17;;;;;;;;;;4972558;28;20423;-72
2021/10/13 14:12:57;;;;;;;3.43;2.33;;;;;;;;;;4972252;28;20435;-71
2021/10/13 14:15:23;;;;;;;2.93;1.43;;;;;;;;;;4972167;28;20511;-71
2021/10/13 14:17:49;;;;;;;2.50;1.30;;;;;;;;;;4972530;28;20867;-70
2021/10/13 14:20:15;;;;;;;1.23;1.13;;;;;;;;;;4972591;28;20480;-71
2021/10/13 14:22:41;;;;;;;1.60;1.30;;;;;;;;;;4972336;28;20513;-71
2021/10/13 14:28:10;;;;;;;3.33;1.53;;;;;;;;;;4972193;28;20437;-72
2021/10/13 14:30:36;;;;;;;2.70;1.37;;;;;;;;;;4972181;28;20418;-72
2021/10/13 14:33:02;;;;;;;1.63;1.53;;;;;;;;;;4972361;28;20431;-70
2021/10/13 14:35:28;;;;;;;3.67;1.87;;;;;;;;;;4972503;28;20853;-72
2021/10/13 14:37:55;;;;;;;3.33;1.40;;;;;;;;;;4972210;28;20519;-70
2021/10/13 14:40:21;;;;;;;4.33;2.00;;;;;;;;;;4972348;28;20510;-72
2021/10/13 14:42:47;;;;;;;2.60;2.20;;;;;;;;;;4972282;28;20422;-70
2021/10/13 14:45:15;;;;;;;2.13;1.60;;;;;;;;;;4975560;28;20423;-70
2021/10/13 14:47:40;;;;;;;3.10;1.90;;;;;;;;;;4975762;28;20428;-70
2021/10/13 14:50:07;;;;;;;2.53;1.40;;;;;;;;;;4975768;28;20430;-73
2021/10/13 14:52:33;;;;;;;2.53;1.50;;;;;;;;;;4975932;28;20478;-73
2021/10/13 14:58:02;;;;;;;2.50;1.30;;;;;;;;;;4975485;28;20405;-71
2021/10/13 15:00:28;;;;;;;3.10;1.90;;;;;;;;;;4975650;28;20426;-71
2021/10/13 15:02:54;;;;;;;3.23;1.60;;;;;;;;;;4975721;28;20869;-69
2021/10/13 15:05:20;;;;;;;2.40;1.47;;;;;;;;;;4975750;28;20410;-72
2021/10/13 15:07:46;;;;;;;1.90;1.70;;;;;;;;;;4975370;28;20470;-71
2021/10/13 15:13:16;;;;;;;2.43;1.77;;;;;;;;;;4975099;28;20433;-71
2021/10/13 15:15:42;;;;;;;2.97;1.50;;;;;;;;;;4975453;28;20419;-73
2021/10/13 15:18:08;;;;;;;2.00;1.67;;;;;;;;;;4974740;28;20437;-72
2021/10/13 15:20:34;;;;;;;2.30;1.63;;;;;;;;;;4976358;28;20418;-71
2021/10/13 15:23:00;;;;;;;1.57;1.47;;;;;;;;;;4976184;28;20894;-72
2021/10/13 15:28:30;;;;;;;2.93;2.30;;;;;;;;;;4975902;28;20418;-71
2021/10/13 15:30:57;;;;;;;2.30;1.67;;;;;;;;;;4975841;28;20466;-71
2021/10/13 15:33:23;;;;;;;1.80;1.70;;;;;;;;;;4975951;28;20897;-71
2021/10/13 15:35:49;;;;;;;1.90;1.67;;;;;;;;;;4976053;28;20431;-71
2021/10/13 15:38:15;;;;;;;1.97;1.50;;;;;;;;;;4976053;28;20422;-70
2021/10/13 15:43:45;;;;;;;3.40;2.50;;;;;;;;;;4975792;28;20445;-71
2021/10/13 15:46:11;;;;;;;2.37;1.80;;;;;;;;;;4975713;28;20422;-71
2021/10/13 15:48:37;;;;;;;4.20;2.20;;;;;;;;;;4975650;28;20497;-70
2021/10/13 15:51:03;;;;;;;3.40;1.90;;;;;;;;;;4975652;28;20843;-70
2021/10/13 15:53:29;;;;;;;4.00;2.50;;;;;;;;;;4975311;28;20430;-71
2021/10/13 15:55:56;;;;;;;4.33;2.97;;;;;;;;;;4974808;28;20473;-70
2021/10/13 15:58:22;;;;;;;3.20;2.50;;;;;;;;;;4975527;28;20422;-71
2021/10/13 16:00:48;;;;;;;3.20;2.43;;;;;;;;;;4975336;28;20858;-70
2021/10/13 16:03:14;;;;;;;3.07;1.90;;;;;;;;;;4975387;28;20425;-71
2021/10/13 16:05:41;;;;;;;4.03;3.13;;;;;;;;;;4975394;28;20436;-71
2021/10/13 16:08:07;;;;;;;3.40;1.97;;;;;;;;;;4975457;28;20426;-71
2021/10/13 16:13:37;;;;;;;3.27;1.63;;;;;;;;;;4975217;28;20493;-70
2021/10/13 16:16:03;;;;;;;2.87;1.90;;;;;;;;;;4974014;28;20468;-70
2021/10/13 16:18:29;;;;;;;1.93;1.73;;;;;;;;;;4974221;28;20965;-70
2021/10/13 16:20:55;;;;;;;2.80;1.77;;;;;;;;;;4973934;28;20419;-71
2021/10/13 16:23:21;;;;;;;2.57;1.60;;;;;;;;;;4975333;28;20971;-70
2021/10/13 16:28:51;;;;;;;2.20;1.30;;;;;;;;;;4975055;28;20818;-71
2021/10/13 16:31:17;;;;;;;1.90;1.80;;;;;;;;;;4975224;28;20465;-70
2021/10/13 16:33:44;;;;;;;1.83;1.73;;;;;;;;;;4974921;28;20421;-69
2021/10/13 16:36:10;;;;;;;2.63;1.80;;;;;;;;;;4974842;28;20497;-71
2021/10/13 16:38:36;;;;;;;2.00;1.57;;;;;;;;;;4974712;28;20462;-71
2021/10/13 16:44:05;;;;;;;1.43;1.33;;;;;;;;;;4974025;28;20477;-69
2021/10/13 16:46:32;;;;;;;4.13;1.80;;;;;;;;;;4974646;28;20414;-70